createdAt,value
2022-11-30T00:01:15.825Z,44.80
2022-11-30T00:03:42.666Z,51.33
2022-11-30T00:06:12.394Z,45.08
2022-11-30T00:11:26.156Z,46.50
2022-11-30T00:13:53.238Z,53.67
2022-11-30T00:16:20.032Z,50.88
2022-11-30T00:18:47.064Z,50.70
2022-11-30T00:21:14.765Z,47.00
2022-11-30T00:23:43.707Z,45.95
2022-11-30T00:26:16.673Z,50.33
2022-11-30T00:28:45.729Z,47.78
2022-11-30T00:31:15.786Z,48.00
2022-11-30T00:33:47.967Z,46.75
2022-11-30T00:36:16.741Z,46.45
2022-11-30T00:38:43.739Z,47.57
2022-11-30T00:41:10.872Z,48.08
2022-11-30T00:43:37.748Z,50.55
2022-11-30T00:46:04.769Z,46.22
2022-11-30T00:48:36.851Z,47.90
2022-11-30T00:51:04.241Z,48.85
2022-11-30T00:53:31.628Z,52.70
2022-11-30T00:55:58.228Z,50.88
2022-11-30T00:58:24.913Z,52.63
2022-11-30T01:00:51.726Z,54.92
2022-11-30T01:03:18.301Z,51.30
2022-11-30T01:05:44.880Z,51.42
2022-11-30T01:08:12.359Z,49.55
2022-11-30T01:10:41.226Z,56.65
2022-11-30T01:13:09.139Z,55.92
2022-11-30T01:15:38.397Z,53.83
2022-11-30T01:18:05.491Z,54.85
2022-11-30T01:20:32.375Z,52.13
2022-11-30T01:22:58.983Z,46.85
2022-11-30T01:25:25.588Z,49.47
2022-11-30T01:27:52.346Z,49.92
2022-11-30T01:30:19.114Z,47.70
2022-11-30T01:32:45.651Z,56.03
2022-11-30T01:35:12.202Z,46.83
2022-11-30T01:37:38.794Z,49.72
2022-11-30T01:40:06.093Z,50.58
2022-11-30T01:42:33.119Z,51.03
2022-11-30T01:45:02.451Z,53.25
2022-11-30T01:47:39.291Z,52.40
2022-11-30T01:50:23.063Z,54.10
2022-11-30T01:52:56.443Z,55.60
2022-11-30T01:55:39.924Z,52.47
2022-11-30T01:58:11.578Z,52.35
2022-11-30T02:00:41.353Z,49.90
2022-11-30T02:03:32.684Z,53.22
2022-11-30T02:06:00.524Z,53.35
2022-11-30T02:08:28.285Z,46.03
2022-11-30T02:11:00.016Z,46.35
2022-11-30T02:13:35.193Z,42.03
2022-11-30T02:16:17.527Z,47.83
2022-11-30T02:18:53.264Z,50.80
2022-11-30T02:21:25.955Z,40.55
2022-11-30T02:24:13.932Z,44.25
2022-11-30T02:26:59.317Z,42.58
2022-11-30T02:29:40.657Z,49.00
2022-11-30T02:32:14.324Z,46.05
2022-11-30T02:34:44.355Z,48.08
2022-11-30T02:37:13.682Z,49.95
2022-11-30T02:39:40.343Z,61.65
2022-11-30T02:42:12.703Z,55.40
2022-11-30T02:44:42.217Z,51.45
2022-11-30T02:47:34.460Z,54.10
2022-11-30T02:50:25.560Z,51.35
2022-11-30T02:52:52.779Z,44.28
2022-11-30T02:55:20.401Z,47.63
2022-11-30T02:57:47.340Z,47.17
2022-11-30T03:00:15.047Z,48.08
2022-11-30T03:02:42.045Z,52.47
2022-11-30T03:05:09.420Z,50.70
2022-11-30T03:07:36.215Z,61.90
2022-11-30T03:10:03.082Z,54.42
2022-11-30T03:12:29.988Z,59.08
2022-11-30T03:14:56.581Z,57.38
2022-11-30T03:17:23.960Z,65.47
2022-11-30T03:19:50.635Z,63.53
2022-11-30T03:22:17.231Z,58.75
2022-11-30T03:24:43.979Z,70.15
2022-11-30T03:27:12.290Z,67.68
2022-11-30T03:29:39.335Z,65.45
2022-11-30T03:32:06.038Z,59.78
2022-11-30T03:34:32.882Z,69.60
2022-11-30T03:36:59.861Z,67.85
2022-11-30T03:39:27.015Z,68.38
2022-11-30T03:41:53.773Z,71.47
2022-11-30T03:44:20.471Z,73.57
2022-11-30T03:46:47.132Z,82.95
2022-11-30T03:49:13.792Z,77.10
2022-11-30T03:51:40.368Z,77.22
2022-11-30T03:54:06.923Z,78.07
2022-11-30T03:56:33.549Z,98.50
2022-11-30T03:59:00.118Z,85.57
2022-11-30T04:01:28.060Z,91.65
2022-11-30T04:03:54.766Z,87.28
2022-11-30T04:06:22.257Z,88.35
2022-11-30T04:08:49.582Z,93.85
2022-11-30T04:11:16.557Z,94.13
2022-11-30T04:13:43.714Z,91.82
2022-11-30T04:16:10.922Z,93.38
2022-11-30T04:18:38.504Z,103.75
2022-11-30T04:21:06.684Z,85.00
2022-11-30T04:23:39.110Z,92.68
2022-11-30T04:26:07.682Z,86.05
2022-11-30T04:28:34.705Z,88.80
2022-11-30T04:31:02.722Z,90.97
2022-11-30T04:33:29.729Z,90.47
2022-11-30T04:35:59.712Z,105.95
2022-11-30T04:38:27.153Z,108.68
2022-11-30T04:40:54.441Z,90.50
2022-11-30T04:43:21.426Z,92.97
2022-11-30T04:45:49.111Z,97.88
2022-11-30T04:48:16.570Z,93.05
2022-11-30T04:50:43.639Z,92.40
2022-11-30T04:53:10.708Z,96.30
2022-11-30T04:55:38.357Z,129.38
2022-11-30T04:58:06.407Z,121.38
2022-11-30T05:00:33.673Z,106.47
2022-11-30T05:03:00.280Z,129.70
2022-11-30T05:05:26.885Z,122.13
2022-11-30T05:07:58.868Z,118.05
2022-11-30T05:10:26.774Z,96.47
2022-11-30T05:12:53.475Z,104.95
2022-11-30T05:15:20.472Z,106.85
2022-11-30T05:17:47.172Z,114.70
2022-11-30T05:20:14.215Z,111.05
2022-11-30T05:22:41.017Z,108.47
2022-11-30T05:25:08.386Z,100.25
2022-11-30T05:27:35.543Z,98.28
2022-11-30T05:30:03.684Z,90.10
2022-11-30T05:32:30.340Z,92.00
2022-11-30T05:34:57.466Z,91.53
2022-11-30T05:37:24.437Z,100.50
2022-11-30T05:39:51.134Z,91.40
2022-11-30T05:42:17.961Z,94.75
2022-11-30T05:44:45.450Z,88.97
2022-11-30T05:47:12.551Z,83.63
2022-11-30T05:49:39.264Z,87.68
2022-11-30T05:52:05.869Z,88.45
2022-11-30T05:54:33.957Z,76.30
2022-11-30T05:57:00.618Z,77.72
2022-11-30T05:59:27.317Z,84.20
2022-11-30T06:01:54.895Z,71.18
2022-11-30T06:04:22.506Z,66.65
2022-11-30T06:06:49.571Z,75.00
2022-11-30T06:09:16.492Z,65.68
2022-11-30T06:11:43.685Z,59.80
2022-11-30T06:14:10.444Z,65.75
2022-11-30T06:16:40.554Z,59.28
2022-11-30T06:19:07.396Z,58.47
2022-11-30T06:21:34.340Z,57.25
2022-11-30T06:24:01.497Z,60.75
2022-11-30T06:26:29.508Z,57.30
2022-11-30T06:28:56.321Z,50.90
2022-11-30T06:31:22.987Z,50.00
2022-11-30T06:33:49.797Z,45.90
2022-11-30T06:36:21.725Z,41.60
2022-11-30T06:38:48.362Z,46.50
2022-11-30T06:41:15.035Z,44.60
2022-11-30T06:43:41.694Z,44.83
2022-11-30T06:46:08.759Z,39.92
2022-11-30T06:48:35.869Z,34.25
2022-11-30T06:51:06.009Z,35.70
2022-11-30T06:53:32.758Z,35.05
2022-11-30T06:55:59.357Z,39.15
2022-11-30T06:58:25.957Z,28.27
2022-11-30T07:00:52.598Z,31.52
2022-11-30T07:03:19.244Z,28.85
2022-11-30T07:05:46.572Z,28.90
2022-11-30T07:08:17.385Z,31.50
2022-11-30T07:10:46.373Z,27.48
2022-11-30T07:13:15.313Z,26.73
2022-11-30T07:15:42.721Z,24.52
2022-11-30T07:18:10.691Z,24.25
2022-11-30T07:20:38.375Z,25.48
2022-11-30T07:23:24.217Z,22.73
2022-11-30T07:26:07.532Z,21.35
2022-11-30T07:28:36.437Z,21.67
2022-11-30T07:31:21.498Z,21.95
2022-11-30T07:33:49.674Z,22.88
2022-11-30T07:36:18.179Z,21.50
2022-11-30T07:38:45.748Z,20.75
2022-11-30T07:41:12.705Z,18.63
2022-11-30T07:43:40.051Z,15.50
2022-11-30T07:46:07.170Z,17.90
2022-11-30T07:48:35.298Z,16.92
2022-11-30T07:51:07.837Z,21.45
2022-11-30T07:53:34.472Z,17.88
2022-11-30T07:56:03.303Z,19.15
2022-11-30T07:58:30.923Z,18.50
2022-11-30T08:01:02.754Z,17.75
2022-11-30T08:03:35.148Z,19.50
2022-11-30T08:06:07.097Z,18.23
2022-11-30T08:08:36.388Z,16.77
2022-11-30T08:11:04.941Z,16.70
2022-11-30T08:13:31.551Z,20.20
2022-11-30T08:16:12.752Z,18.02
2022-11-30T08:18:40.589Z,25.83
2022-11-30T08:21:09.458Z,26.08
2022-11-30T08:23:41.291Z,21.90
2022-11-30T08:26:09.104Z,22.27
2022-11-30T08:28:38.521Z,22.20
2022-11-30T08:31:08.959Z,23.10
2022-11-30T08:33:36.692Z,21.60
2022-11-30T08:36:11.885Z,23.33
2022-11-30T08:38:39.608Z,25.90
2022-11-30T08:41:07.214Z,24.42
2022-11-30T08:43:34.051Z,26.80
2022-11-30T08:46:11.405Z,24.77
2022-11-30T08:48:48.488Z,22.52
2022-11-30T08:51:17.529Z,24.75
2022-11-30T08:53:45.205Z,21.95
2022-11-30T08:56:15.490Z,21.35
2022-11-30T08:58:42.731Z,21.73
2022-11-30T09:01:14.496Z,27.08
2022-11-30T09:03:42.453Z,24.50
2022-11-30T09:06:16.840Z,24.27
2022-11-30T09:08:45.917Z,24.27
2022-11-30T09:11:20.691Z,24.25
2022-11-30T09:13:48.100Z,28.50
2022-11-30T09:16:19.646Z,25.52
2022-11-30T09:18:47.810Z,22.33
2022-11-30T09:21:17.617Z,22.08
2022-11-30T09:23:46.024Z,23.33
2022-11-30T09:26:14.969Z,23.33
2022-11-30T09:28:41.897Z,27.30
2022-11-30T09:31:12.659Z,23.77
2022-11-30T09:33:39.441Z,25.15
2022-11-30T09:36:08.664Z,22.23
2022-11-30T09:38:36.357Z,23.90
2022-11-30T09:41:38.796Z,26.50
2022-11-30T09:44:39.487Z,27.88
2022-11-30T09:47:31.894Z,23.75
2022-11-30T09:50:03.840Z,25.98
2022-11-30T09:52:35.865Z,21.65
2022-11-30T09:55:08.600Z,25.05
2022-11-30T09:57:41.399Z,27.23
2022-11-30T10:00:22.850Z,20.23
2022-11-30T10:02:56.227Z,24.08
2022-11-30T10:05:39.554Z,21.25
2022-11-30T10:08:30.610Z,21.50
2022-11-30T10:11:23.112Z,20.75
2022-11-30T10:14:17.512Z,21.02
2022-11-30T10:17:21.266Z,21.45
2022-11-30T10:20:14.869Z,30.55
2022-11-30T10:22:56.806Z,25.20
2022-11-30T10:25:40.077Z,22.77
2022-11-30T10:28:24.361Z,27.13
2022-11-30T10:30:54.077Z,24.15
2022-11-30T10:33:35.348Z,23.52
2022-11-30T10:36:25.181Z,25.50
2022-11-30T10:38:59.225Z,25.33
2022-11-30T10:41:43.458Z,27.52
2022-11-30T10:44:44.101Z,22.90
2022-11-30T10:47:19.749Z,22.95
2022-11-30T10:49:50.226Z,26.73
2022-11-30T10:52:22.450Z,26.67
2022-11-30T10:54:52.996Z,25.92
2022-11-30T10:57:22.016Z,23.77
2022-11-30T11:00:00.579Z,23.70
2022-11-30T11:02:37.865Z,27.75
2022-11-30T11:05:09.296Z,24.38
2022-11-30T11:08:01.231Z,26.73
2022-11-30T11:10:37.283Z,29.02
2022-11-30T11:13:05.201Z,28.23
2022-11-30T11:15:34.241Z,25.77
2022-11-30T11:18:21.434Z,27.73
2022-11-30T11:20:51.780Z,31.15
2022-11-30T11:23:35.469Z,28.52
2022-11-30T11:26:02.791Z,27.42
2022-11-30T11:28:29.578Z,30.38
2022-11-30T11:30:57.594Z,31.08
2022-11-30T11:33:29.531Z,31.30
2022-11-30T11:36:15.128Z,30.58
2022-11-30T11:38:44.838Z,34.05
2022-11-30T11:44:21.300Z,38.38
2022-11-30T11:47:07.717Z,35.45
2022-11-30T11:49:38.996Z,38.83
2022-11-30T11:52:15.486Z,32.70
2022-11-30T11:55:05.560Z,38.92
2022-11-30T11:57:48.520Z,33.40
2022-11-30T12:00:17.464Z,39.30
2022-11-30T12:02:59.501Z,28.15
2022-11-30T12:05:42.936Z,36.92
2022-11-30T12:08:28.398Z,32.80
2022-11-30T12:11:00.382Z,35.78
2022-11-30T12:13:34.871Z,34.53
2022-11-30T12:16:34.945Z,34.70
2022-11-30T12:19:17.155Z,37.65
2022-11-30T12:22:02.088Z,36.40
2022-11-30T12:25:07.533Z,33.85
2022-11-30T12:27:58.912Z,34.53
2022-11-30T12:30:44.265Z,38.90
2022-11-30T12:33:26.003Z,38.80
2022-11-30T12:36:20.024Z,40.95
2022-11-30T12:39:01.799Z,42.10
2022-11-30T12:41:37.318Z,41.03
2022-11-30T12:44:28.539Z,40.75
2022-11-30T12:47:07.753Z,41.25
2022-11-30T12:49:40.602Z,35.17
2022-11-30T12:52:40.630Z,45.22
2022-11-30T12:55:37.925Z,42.08
2022-11-30T12:58:22.142Z,39.00
2022-11-30T13:01:11.130Z,41.75
2022-11-30T13:04:19.579Z,45.63
2022-11-30T13:07:11.890Z,40.40
2022-11-30T13:09:44.576Z,44.40
2022-11-30T13:12:16.594Z,49.28
2022-11-30T13:14:44.074Z,51.03
2022-11-30T13:17:18.525Z,48.35
2022-11-30T13:19:59.861Z,44.92
2022-11-30T13:22:48.401Z,48.65
2022-11-30T13:28:26.775Z,51.25
2022-11-30T13:33:50.418Z,46.83
2022-11-30T13:36:44.752Z,48.90
2022-11-30T13:39:14.697Z,45.67
2022-11-30T13:41:43.763Z,49.92
2022-11-30T13:44:37.197Z,53.72
2022-11-30T13:47:26.141Z,51.65
2022-11-30T13:50:05.372Z,53.35
2022-11-30T13:53:00.532Z,50.90
2022-11-30T13:55:36.549Z,57.05
2022-11-30T13:58:09.341Z,55.53
2022-11-30T14:00:36.031Z,56.85
2022-11-30T14:03:22.425Z,63.42
2022-11-30T14:05:59.480Z,61.40
2022-11-30T14:08:36.016Z,63.38
2022-11-30T14:11:38.957Z,67.22
2022-11-30T14:14:44.936Z,70.57
2022-11-30T14:17:20.019Z,78.20
2022-11-30T14:19:50.384Z,79.20
2022-11-30T14:22:17.796Z,82.30
2022-11-30T14:24:47.266Z,78.00
2022-11-30T14:27:22.810Z,77.05
2022-11-30T14:29:53.405Z,77.75
2022-11-30T14:32:30.281Z,83.32
2022-11-30T14:35:12.154Z,73.25
2022-11-30T14:37:52.502Z,77.28
2022-11-30T14:40:21.925Z,78.50
2022-11-30T14:42:56.569Z,82.47
2022-11-30T14:45:27.608Z,80.40
2022-11-30T14:48:06.392Z,79.40
2022-11-30T14:50:33.952Z,85.15
2022-11-30T14:53:14.355Z,87.43
2022-11-30T14:55:52.731Z,83.63
2022-11-30T14:58:46.895Z,82.40
2022-11-30T15:01:25.961Z,89.05
2022-11-30T15:03:56.689Z,86.93
2022-11-30T15:06:29.711Z,85.20
2022-11-30T15:08:59.254Z,86.20
2022-11-30T15:11:26.360Z,84.60
2022-11-30T15:13:56.330Z,85.93
2022-11-30T15:16:30.386Z,79.07
2022-11-30T15:18:59.190Z,79.20
2022-11-30T15:21:31.053Z,78.23
2022-11-30T15:24:00.776Z,83.55
2022-11-30T15:29:08.021Z,77.25
2022-11-30T15:31:39.324Z,76.13
2022-11-30T15:34:07.501Z,76.45
2022-11-30T15:36:38.470Z,79.35
2022-11-30T15:39:08.075Z,82.35
2022-11-30T15:44:02.820Z,84.82
2022-11-30T15:46:34.249Z,76.03
2022-11-30T15:49:25.222Z,74.05
2022-11-30T15:52:04.719Z,81.32
2022-11-30T15:54:55.315Z,78.05
2022-11-30T15:57:26.096Z,77.35
2022-11-30T16:00:19.782Z,77.07
2022-11-30T16:02:46.810Z,75.43
2022-11-30T16:05:14.722Z,76.60
2022-11-30T16:07:59.414Z,70.57
2022-11-30T16:10:29.610Z,75.45
2022-11-30T16:12:56.574Z,75.68
2022-11-30T16:15:36.093Z,69.55
2022-11-30T16:20:52.308Z,82.03
2022-11-30T16:23:20.077Z,78.80
2022-11-30T16:25:48.203Z,74.57
2022-11-30T16:28:17.716Z,68.47
2022-11-30T16:30:47.066Z,73.20
2022-11-30T16:33:22.228Z,76.68
2022-11-30T16:35:57.676Z,70.78
2022-11-30T16:38:25.545Z,71.40
2022-11-30T16:40:56.495Z,74.32
2022-11-30T16:43:26.266Z,72.70
2022-11-30T16:45:53.257Z,78.75
2022-11-30T16:48:20.061Z,77.65
2022-11-30T16:50:47.004Z,71.88
2022-11-30T16:53:17.610Z,82.63
2022-11-30T16:55:44.492Z,82.28
2022-11-30T16:58:11.220Z,82.35
2022-11-30T17:00:40.252Z,75.53
2022-11-30T17:03:21.204Z,85.25
2022-11-30T17:05:48.196Z,77.47
2022-11-30T17:08:14.789Z,92.10
2022-11-30T17:10:42.337Z,91.57
2022-11-30T17:13:14.320Z,86.40
2022-11-30T17:15:41.425Z,85.43
2022-11-30T17:18:08.150Z,86.10
2022-11-30T17:20:36.818Z,89.47
2022-11-30T17:23:05.025Z,98.43
2022-11-30T17:25:32.074Z,93.65
2022-11-30T17:27:59.959Z,92.20
2022-11-30T17:30:27.885Z,84.88
2022-11-30T17:32:54.978Z,94.45
2022-11-30T17:35:21.615Z,90.95
2022-11-30T17:37:48.319Z,94.68
2022-11-30T17:40:17.982Z,90.25
2022-11-30T17:45:11.611Z,95.38
2022-11-30T17:47:38.706Z,95.55
2022-11-30T17:50:07.369Z,81.80
2022-11-30T17:52:35.102Z,90.90
2022-11-30T17:55:01.724Z,92.13
2022-11-30T17:57:28.376Z,93.13
2022-11-30T17:59:55.218Z,86.55
2022-11-30T18:02:21.944Z,98.72
2022-11-30T18:04:48.781Z,97.18
2022-11-30T18:07:15.669Z,89.78
2022-11-30T18:09:43.681Z,99.40
2022-11-30T18:12:10.714Z,92.25
2022-11-30T18:14:39.383Z,90.63
2022-11-30T18:17:06.797Z,97.05
2022-11-30T18:19:33.473Z,99.88
2022-11-30T18:22:00.661Z,99.07
2022-11-30T18:24:27.245Z,106.03
2022-11-30T18:26:53.824Z,92.43
2022-11-30T18:29:20.616Z,97.20
2022-11-30T18:31:48.489Z,97.03
2022-11-30T18:34:15.337Z,97.50
2022-11-30T18:36:42.784Z,96.93
2022-11-30T18:39:09.646Z,99.82
2022-11-30T18:41:40.013Z,100.78
2022-11-30T18:44:06.819Z,102.15
2022-11-30T18:46:33.919Z,110.78
2022-11-30T18:49:01.752Z,105.82
2022-11-30T18:51:30.379Z,107.45
2022-11-30T18:53:59.824Z,115.75
2022-11-30T18:56:30.267Z,116.85
2022-11-30T18:58:59.307Z,112.25
2022-11-30T19:01:26.860Z,117.20
2022-11-30T19:04:05.623Z,119.57
2022-11-30T19:06:33.170Z,118.07
2022-11-30T19:09:02.809Z,134.20
2022-11-30T19:13:57.717Z,118.45
2022-11-30T19:16:29.123Z,123.40
2022-11-30T19:18:59.092Z,116.97
2022-11-30T19:21:27.030Z,118.47
2022-11-30T19:23:54.056Z,122.65
2022-11-30T19:26:20.654Z,122.80
2022-11-30T19:28:47.292Z,124.32
2022-11-30T19:31:16.915Z,122.35
2022-11-30T19:36:23.547Z,118.38
2022-11-30T19:38:51.609Z,126.93
2022-11-30T19:41:20.161Z,129.30
2022-11-30T19:43:53.966Z,122.75
2022-11-30T19:46:22.984Z,128.27
2022-11-30T19:48:54.751Z,123.00
2022-11-30T19:51:21.639Z,120.70
2022-11-30T19:53:48.338Z,125.07
2022-11-30T19:56:17.184Z,123.75
2022-11-30T19:58:45.481Z,112.93
2022-11-30T20:01:22.865Z,122.20
2022-11-30T20:03:51.150Z,114.65
2022-11-30T20:06:19.076Z,119.72
2022-11-30T20:08:46.094Z,131.90
2022-11-30T20:11:15.416Z,124.07
2022-11-30T20:13:44.033Z,124.72
2022-11-30T20:16:16.937Z,110.18
2022-11-30T20:18:46.524Z,120.05
2022-11-30T20:21:25.069Z,118.13
2022-11-30T20:23:53.723Z,118.95
2022-11-30T20:26:26.274Z,124.95
2022-11-30T20:28:54.135Z,118.07
2022-11-30T20:31:22.705Z,117.53
2022-11-30T20:33:50.229Z,129.15
2022-11-30T20:36:18.204Z,131.40
2022-11-30T20:38:44.904Z,121.32
2022-11-30T20:41:14.013Z,109.30
2022-11-30T20:43:41.580Z,112.13
2022-11-30T20:46:19.664Z,108.93
2022-11-30T20:48:47.542Z,111.25
2022-11-30T20:51:33.303Z,103.45
2022-11-30T20:54:02.194Z,109.07
2022-11-30T20:56:28.875Z,114.60
2022-11-30T20:58:55.625Z,104.00
2022-11-30T21:01:23.270Z,104.15
2022-11-30T21:03:50.418Z,113.03
2022-11-30T21:06:17.384Z,115.78
2022-11-30T21:08:44.547Z,107.80
2022-11-30T21:11:14.134Z,112.45
2022-11-30T21:13:42.893Z,118.32
2022-11-30T21:16:10.286Z,108.00
2022-11-30T21:18:38.645Z,105.18
2022-11-30T21:21:07.812Z,119.15
2022-11-30T21:23:34.599Z,128.98
2022-11-30T21:26:22.970Z,114.25
2022-11-30T21:28:53.210Z,126.45
2022-11-30T21:31:21.506Z,112.45
2022-11-30T21:33:53.294Z,114.55
2022-11-30T21:36:21.882Z,107.55
2022-11-30T21:39:02.872Z,110.35
2022-11-30T21:41:31.605Z,120.80
2022-11-30T21:43:58.793Z,114.68
2022-11-30T21:46:26.305Z,104.80
2022-11-30T21:48:52.960Z,104.15
2022-11-30T21:51:23.202Z,97.78
2022-11-30T21:53:55.150Z,99.57
2022-11-30T21:56:25.062Z,105.38
2022-11-30T21:58:52.049Z,107.40
2022-11-30T22:01:21.704Z,113.38
2022-11-30T22:03:48.884Z,109.50
2022-11-30T22:06:17.855Z,105.53
2022-11-30T22:08:45.342Z,96.32
2022-11-30T22:11:22.729Z,97.03
2022-11-30T22:13:50.973Z,106.07
2022-11-30T22:16:18.637Z,97.40
2022-11-30T22:18:46.616Z,89.60
2022-11-30T22:21:15.815Z,88.32
2022-11-30T22:23:45.327Z,102.55
2022-11-30T22:26:19.170Z,101.85
2022-11-30T22:29:00.299Z,93.13
2022-11-30T22:31:29.755Z,104.10
2022-11-30T22:33:57.076Z,104.93
2022-11-30T22:36:26.478Z,98.07
2022-11-30T22:38:58.718Z,106.75
2022-11-30T22:41:26.443Z,107.78
2022-11-30T22:43:54.760Z,101.78
2022-11-30T22:46:24.069Z,99.05
2022-11-30T22:48:51.197Z,109.82
2022-11-30T22:51:19.388Z,101.13
2022-11-30T22:53:49.485Z,113.07
2022-11-30T22:56:19.211Z,101.13
2022-11-30T22:58:47.370Z,120.35
2022-11-30T23:01:23.177Z,113.97
2022-11-30T23:03:51.555Z,105.15
2022-11-30T23:06:19.712Z,121.25
2022-11-30T23:08:47.838Z,111.82
2022-11-30T23:11:20.358Z,121.93
2022-11-30T23:13:47.369Z,108.40
2022-11-30T23:16:15.234Z,115.32
2022-11-30T23:18:44.442Z,111.13
2022-11-30T23:21:16.858Z,106.95
2022-11-30T23:23:44.159Z,97.45
2022-11-30T23:26:13.895Z,105.82
2022-11-30T23:28:42.049Z,94.60
2022-11-30T23:31:34.219Z,96.78
2022-11-30T23:34:01.343Z,90.18
2022-11-30T23:36:27.976Z,84.80
2022-11-30T23:38:59.951Z,71.55
2022-11-30T23:41:27.380Z,75.85
2022-11-30T23:43:54.528Z,77.18
2022-11-30T23:46:21.911Z,67.05
2022-11-30T23:48:49.025Z,74.00
2022-11-30T23:51:15.916Z,67.57
2022-11-30T23:53:42.553Z,67.95
2022-11-30T23:56:13.179Z,63.58
2022-11-30T23:58:39.890Z,64.18
